sensor_id;sensor_type;location;lat;lon;timestamp;P1;durP1;ratioP1;P2;durP2;ratioP2
434;SDS011;204;48.942;9.256;2023-02-01T00:01:39;6.03;;;5.73;;
434;SDS011;204;48.942;9.256;2023-02-01T00:04:05;5.83;;;5.13;;
434;SDS011;204;48.942;9.256;2023-02-01T00:06:31;5.17;;;3.97;;
434;SDS011;204;48.942;9.256;2023-02-01T00:08:56;5.83;;;4.60;;
434;SDS011;204;48.942;9.256;2023-02-01T00:11:22;3.37;;;3.03;;
434;SDS011;204;48.942;9.256;2023-02-01T00:13:48;4.07;;;3.42;;
434;SDS011;204;48.942;9.256;2023-02-01T00:16:22;3.78;;;3.58;;
434;SDS011;204;48.942;9.256;2023-02-01T00:18:50;4.38;;;4.07;;
434;SDS011;204;48.942;9.256;2023-02-01T00:21:18;3.22;;;3.08;;
434;SDS011;204;48.942;9.256;2023-02-01T00:23:45;3.85;;;3.30;;
434;SDS011;204;48.942;9.256;2023-02-01T00:26:15;3.50;;;3.13;;
434;SDS011;204;48.942;9.256;2023-02-01T00:28:42;3.15;;;2.95;;
434;SDS011;204;48.942;9.256;2023-02-01T00:31:08;4.43;;;3.93;;
434;SDS011;204;48.942;9.256;2023-02-01T00:33:34;2.77;;;2.53;;
434;SDS011;204;48.942;9.256;2023-02-01T00:36:01;3.13;;;2.80;;
434;SDS011;204;48.942;9.256;2023-02-01T00:38:29;4.32;;;3.30;;
434;SDS011;204;48.942;9.256;2023-02-01T00:41:01;3.00;;;2.80;;
434;SDS011;204;48.942;9.256;2023-02-01T00:43:28;2.92;;;2.72;;
434;SDS011;204;48.942;9.256;2023-02-01T00:45:55;4.70;;;4.30;;
434;SDS011;204;48.942;9.256;2023-02-01T00:48:20;7.33;;;6.40;;
434;SDS011;204;48.942;9.256;2023-02-01T00:50:46;3.30;;;3.10;;
434;SDS011;204;48.942;9.256;2023-02-01T00:53:11;4.20;;;2.87;;
434;SDS011;204;48.942;9.256;2023-02-01T00:55:37;3.30;;;3.10;;
434;SDS011;204;48.942;9.256;2023-02-01T00:58:03;2.83;;;2.63;;
434;SDS011;204;48.942;9.256;2023-02-01T01:00:30;3.17;;;2.97;;
434;SDS011;204;48.942;9.256;2023-02-01T01:02:57;4.10;;;3.85;;
434;SDS011;204;48.942;9.256;2023-02-01T01:05:22;3.23;;;3.03;;
434;SDS011;204;48.942;9.256;2023-02-01T01:07:48;3.55;;;3.35;;
434;SDS011;204;48.942;9.256;2023-02-01T01:10:14;2.77;;;2.57;;
434;SDS011;204;48.942;9.256;2023-02-01T01:12:40;2.63;;;2.42;;
434;SDS011;204;48.942;9.256;2023-02-01T01:15:06;2.70;;;2.60;;
434;SDS011;204;48.942;9.256;2023-02-01T01:17:32;2.65;;;2.08;;
434;SDS011;204;48.942;9.256;2023-02-01T01:19:58;3.20;;;2.50;;
434;SDS011;204;48.942;9.256;2023-02-01T01:22:24;3.53;;;2.20;;
434;SDS011;204;48.942;9.256;2023-02-01T01:24:49;4.73;;;3.00;;
434;SDS011;204;48.942;9.256;2023-02-01T01:27:15;4.00;;;2.13;;
434;SDS011;204;48.942;9.256;2023-02-01T01:29:40;2.60;;;2.40;;
434;SDS011;204;48.942;9.256;2023-02-01T01:32:06;1.93;;;1.90;;
434;SDS011;204;48.942;9.256;2023-02-01T01:34:31;2.87;;;2.70;;
434;SDS011;204;48.942;9.256;2023-02-01T01:36:57;2.77;;;2.57;;
434;SDS011;204;48.942;9.256;2023-02-01T01:39:23;2.53;;;2.37;;
434;SDS011;204;48.942;9.256;2023-02-01T01:41:48;2.43;;;2.20;;
434;SDS011;204;48.942;9.256;2023-02-01T01:47:17;2.72;;;2.53;;
434;SDS011;204;48.942;9.256;2023-02-01T01:49:43;3.87;;;2.70;;
434;SDS011;204;48.942;9.256;2023-02-01T01:52:09;4.25;;;2.30;;
434;SDS011;204;48.942;9.256;2023-02-01T01:54:37;3.10;;;2.90;;
434;SDS011;204;48.942;9.256;2023-02-01T01:57:06;2.20;;;2.00;;
434;SDS011;204;48.942;9.256;2023-02-01T01:59:37;3.28;;;3.08;;
434;SDS011;204;48.942;9.256;2023-02-01T02:02:04;2.20;;;2.03;;
434;SDS011;204;48.942;9.256;2023-02-01T02:04:31;2.30;;;2.10;;
434;SDS011;204;48.942;9.256;2023-02-01T02:06:59;2.70;;;2.50;;
434;SDS011;204;48.942;9.256;2023-02-01T02:09:28;2.28;;;2.10;;
434;SDS011;204;48.942;9.256;2023-02-01T02:11:54;2.30;;;2.10;;
434;SDS011;204;48.942;9.256;2023-02-01T02:14:20;2.33;;;2.13;;
434;SDS011;204;48.942;9.256;2023-02-01T02:41:50;2.40;;;2.30;;
434;SDS011;204;48.942;9.256;2023-02-01T02:45:09;1.92;;;1.83;;
434;SDS011;204;48.942;9.256;2023-02-01T02:53:27;2.17;;;1.88;;
434;SDS011;204;48.942;9.256;2023-02-01T02:56:12;2.28;;;2.08;;
434;SDS011;204;48.942;9.256;2023-02-01T02:58:58;2.03;;;1.92;;
434;SDS011;204;48.942;9.256;2023-02-01T03:01:43;4.32;;;2.25;;
434;SDS011;204;48.942;9.256;2023-02-01T03:04:27;2.08;;;1.90;;
434;SDS011;204;48.942;9.256;2023-02-01T03:06:53;1.87;;;1.77;;
434;SDS011;204;48.942;9.256;2023-02-01T03:09:21;4.13;;;2.00;;
434;SDS011;204;48.942;9.256;2023-02-01T03:11:48;1.70;;;1.60;;
434;SDS011;204;48.942;9.256;2023-02-01T03:14:37;2.00;;;1.90;;
434;SDS011;204;48.942;9.256;2023-02-01T03:17:11;2.80;;;2.38;;
434;SDS011;204;48.942;9.256;2023-02-01T03:19:43;2.35;;;2.08;;
434;SDS011;204;48.942;9.256;2023-02-01T03:22:15;2.10;;;1.95;;
434;SDS011;204;48.942;9.256;2023-02-01T03:24:45;2.75;;;1.70;;
434;SDS011;204;48.942;9.256;2023-02-01T03:27:24;2.75;;;2.20;;
434;SDS011;204;48.942;9.256;2023-02-01T03:30:02;2.22;;;1.70;;
434;SDS011;204;48.942;9.256;2023-02-01T03:32:34;2.50;;;1.80;;
434;SDS011;204;48.942;9.256;2023-02-01T03:35:23;2.30;;;1.98;;
434;SDS011;204;48.942;9.256;2023-02-01T03:40:55;2.40;;;2.08;;
434;SDS011;204;48.942;9.256;2023-02-01T03:43:46;2.40;;;2.20;;
434;SDS011;204;48.942;9.256;2023-02-01T03:46:21;1.88;;;1.83;;
434;SDS011;204;48.942;9.256;2023-02-01T03:48:52;2.17;;;2.03;;
434;SDS011;204;48.942;9.256;2023-02-01T03:51:20;1.95;;;1.85;;
434;SDS011;204;48.942;9.256;2023-02-01T03:53:47;2.50;;;1.55;;
434;SDS011;204;48.942;9.256;2023-02-01T03:56:14;1.60;;;1.50;;
434;SDS011;204;48.942;9.256;2023-02-01T03:58:43;1.77;;;1.67;;
434;SDS011;204;48.942;9.256;2023-02-01T04:01:23;2.90;;;2.10;;
434;SDS011;204;48.942;9.256;2023-02-01T04:03:48;2.60;;;2.30;;
434;SDS011;204;48.942;9.256;2023-02-01T04:06:16;2.10;;;1.95;;
434;SDS011;204;48.942;9.256;2023-02-01T04:08:42;1.90;;;1.80;;
434;SDS011;204;48.942;9.256;2023-02-01T04:11:07;3.43;;;2.37;;
434;SDS011;204;48.942;9.256;2023-02-01T04:13:33;1.80;;;1.70;;
434;SDS011;204;48.942;9.256;2023-02-01T04:15:58;1.73;;;1.63;;
434;SDS011;204;48.942;9.256;2023-02-01T04:18:24;3.40;;;2.37;;
434;SDS011;204;48.942;9.256;2023-02-01T04:20:49;2.50;;;2.30;;
434;SDS011;204;48.942;9.256;2023-02-01T04:23:15;1.87;;;1.80;;
434;SDS011;204;48.942;9.256;2023-02-01T04:25:41;2.27;;;2.07;;
434;SDS011;204;48.942;9.256;2023-02-01T04:28:06;1.67;;;1.57;;
434;SDS011;204;48.942;9.256;2023-02-01T04:30:32;3.73;;;1.90;;
434;SDS011;204;48.942;9.256;2023-02-01T04:32:58;1.97;;;1.90;;
434;SDS011;204;48.942;9.256;2023-02-01T04:35:23;2.13;;;1.97;;
434;SDS011;204;48.942;9.256;2023-02-01T04:37:49;3.47;;;1.70;;
434;SDS011;204;48.942;9.256;2023-02-01T04:40:14;2.37;;;1.87;;
434;SDS011;204;48.942;9.256;2023-02-01T04:42:40;3.17;;;2.17;;
434;SDS011;204;48.942;9.256;2023-02-01T04:45:06;2.15;;;1.98;;
434;SDS011;204;48.942;9.256;2023-02-01T04:47:33;2.15;;;1.60;;
434;SDS011;204;48.942;9.256;2023-02-01T04:49:59;2.10;;;1.70;;
434;SDS011;204;48.942;9.256;2023-02-01T04:52:25;1.40;;;1.30;;
434;SDS011;204;48.942;9.256;2023-02-01T04:54:52;1.95;;;1.65;;
434;SDS011;204;48.942;9.256;2023-02-01T04:57:19;2.13;;;1.70;;
434;SDS011;204;48.942;9.256;2023-02-01T04:59:44;2.20;;;2.00;;
434;SDS011;204;48.942;9.256;2023-02-01T05:02:10;3.00;;;2.00;;
434;SDS011;204;48.942;9.256;2023-02-01T05:04:36;2.17;;;1.73;;
434;SDS011;204;48.942;9.256;2023-02-01T05:07:01;1.77;;;1.67;;
434;SDS011;204;48.942;9.256;2023-02-01T05:09:27;2.13;;;1.97;;
434;SDS011;204;48.942;9.256;2023-02-01T05:11:52;3.37;;;2.10;;
434;SDS011;204;48.942;9.256;2023-02-01T05:14:36;2.58;;;1.95;;
434;SDS011;204;48.942;9.256;2023-02-01T05:17:02;1.73;;;1.63;;
434;SDS011;204;48.942;9.256;2023-02-01T05:19:28;5.13;;;1.70;;
434;SDS011;204;48.942;9.256;2023-02-01T05:21:53;1.87;;;1.70;;
434;SDS011;204;48.942;9.256;2023-02-01T05:24:19;1.83;;;1.73;;
434;SDS011;204;48.942;9.256;2023-02-01T05:26:45;2.20;;;1.90;;
434;SDS011;204;48.942;9.256;2023-02-01T05:29:12;2.17;;;1.73;;
434;SDS011;204;48.942;9.256;2023-02-01T05:31:38;2.90;;;2.00;;
434;SDS011;204;48.942;9.256;2023-02-01T05:34:04;2.47;;;1.30;;
434;SDS011;204;48.942;9.256;2023-02-01T05:36:30;1.80;;;1.70;;
434;SDS011;204;48.942;9.256;2023-02-01T05:38:56;2.33;;;2.17;;
434;SDS011;204;48.942;9.256;2023-02-01T05:41:21;2.93;;;2.20;;
434;SDS011;204;48.942;9.256;2023-02-01T05:43:47;2.00;;;1.90;;
434;SDS011;204;48.942;9.256;2023-02-01T05:46:13;3.50;;;2.67;;
434;SDS011;204;48.942;9.256;2023-02-01T05:48:39;2.30;;;2.10;;
434;SDS011;204;48.942;9.256;2023-02-01T05:51:05;3.60;;;2.10;;
434;SDS011;204;48.942;9.256;2023-02-01T05:53:31;2.53;;;1.60;;
434;SDS011;204;48.942;9.256;2023-02-01T05:55:56;2.53;;;1.73;;
434;SDS011;204;48.942;9.256;2023-02-01T05:58:22;2.20;;;1.90;;
434;SDS011;204;48.942;9.256;2023-02-01T06:00:48;2.50;;;2.10;;
434;SDS011;204;48.942;9.256;2023-02-01T06:03:13;3.50;;;2.30;;
434;SDS011;204;48.942;9.256;2023-02-01T06:05:39;3.07;;;1.60;;
434;SDS011;204;48.942;9.256;2023-02-01T06:08:04;3.10;;;1.50;;
434;SDS011;204;48.942;9.256;2023-02-01T06:10:32;1.70;;;1.30;;
434;SDS011;204;48.942;9.256;2023-02-01T06:12:58;2.28;;;1.50;;
434;SDS011;204;48.942;9.256;2023-02-01T06:15:24;2.90;;;1.73;;
434;SDS011;204;48.942;9.256;2023-02-01T06:17:49;1.60;;;1.50;;
434;SDS011;204;48.942;9.256;2023-02-01T06:20:15;2.50;;;1.37;;
434;SDS011;204;48.942;9.256;2023-02-01T06:22:41;3.38;;;2.38;;
434;SDS011;204;48.942;9.256;2023-02-01T06:25:07;2.70;;;2.20;;
434;SDS011;204;48.942;9.256;2023-02-01T06:27:34;2.85;;;2.60;;
434;SDS011;204;48.942;9.256;2023-02-01T06:30:01;3.40;;;2.50;;
434;SDS011;204;48.942;9.256;2023-02-01T06:32:27;2.58;;;2.38;;
434;SDS011;204;48.942;9.256;2023-02-01T06:34:53;3.30;;;2.87;;
434;SDS011;204;48.942;9.256;2023-02-01T06:37:20;5.43;;;2.90;;
434;SDS011;204;48.942;9.256;2023-02-01T06:39:46;3.25;;;2.70;;
434;SDS011;204;48.942;9.256;2023-02-01T06:42:11;4.00;;;3.37;;
434;SDS011;204;48.942;9.256;2023-02-01T06:44:37;5.97;;;3.53;;
434;SDS011;204;48.942;9.256;2023-02-01T06:47:03;4.93;;;3.40;;
434;SDS011;204;48.942;9.256;2023-02-01T06:49:29;3.90;;;3.67;;
434;SDS011;204;48.942;9.256;2023-02-01T06:51:54;7.43;;;3.87;;
434;SDS011;204;48.942;9.256;2023-02-01T06:54:20;5.67;;;4.37;;
434;SDS011;204;48.942;9.256;2023-02-01T06:56:46;6.17;;;3.83;;
434;SDS011;204;48.942;9.256;2023-02-01T06:59:11;5.70;;;4.00;;
434;SDS011;204;48.942;9.256;2023-02-01T07:01:37;6.47;;;3.53;;
434;SDS011;204;48.942;9.256;2023-02-01T07:04:03;7.40;;;4.35;;
434;SDS011;204;48.942;9.256;2023-02-01T07:06:29;10.90;;;4.17;;
434;SDS011;204;48.942;9.256;2023-02-01T07:08:54;6.00;;;4.10;;
434;SDS011;204;48.942;9.256;2023-02-01T07:11:20;6.72;;;4.35;;
434;SDS011;204;48.942;9.256;2023-02-01T07:13:47;6.55;;;4.22;;
434;SDS011;204;48.942;9.256;2023-02-01T07:16:14;11.40;;;4.63;;
434;SDS011;204;48.942;9.256;2023-02-01T07:18:41;7.50;;;4.55;;
434;SDS011;204;48.942;9.256;2023-02-01T07:21:08;8.77;;;5.30;;
434;SDS011;204;48.942;9.256;2023-02-01T07:23:34;9.73;;;6.53;;
434;SDS011;204;48.942;9.256;2023-02-01T07:26:00;9.57;;;6.55;;
434;SDS011;204;48.942;9.256;2023-02-01T07:28:29;6.35;;;5.03;;
434;SDS011;204;48.942;9.256;2023-02-01T07:31:01;11.15;;;5.78;;
434;SDS011;204;48.942;9.256;2023-02-01T07:33:31;10.50;;;6.40;;
434;SDS011;204;48.942;9.256;2023-02-01T07:35:57;7.80;;;5.30;;
434;SDS011;204;48.942;9.256;2023-02-01T07:38:25;6.63;;;5.00;;
434;SDS011;204;48.942;9.256;2023-02-01T07:40:50;7.60;;;5.93;;
434;SDS011;204;48.942;9.256;2023-02-01T07:43:16;7.33;;;5.47;;
434;SDS011;204;48.942;9.256;2023-02-01T07:45:41;11.80;;;6.20;;
434;SDS011;204;48.942;9.256;2023-02-01T07:48:07;10.13;;;6.10;;
434;SDS011;204;48.942;9.256;2023-02-01T07:50:32;8.73;;;6.03;;
434;SDS011;204;48.942;9.256;2023-02-01T07:52:59;9.43;;;6.50;;
434;SDS011;204;48.942;9.256;2023-02-01T07:55:25;10.75;;;6.63;;
434;SDS011;204;48.942;9.256;2023-02-01T07:57:52;13.55;;;7.25;;
434;SDS011;204;48.942;9.256;2023-02-01T08:00:18;17.10;;;7.37;;
434;SDS011;204;48.942;9.256;2023-02-01T08:03:03;10.48;;;6.45;;
434;SDS011;204;48.942;9.256;2023-02-01T08:05:29;12.43;;;6.20;;
434;SDS011;204;48.942;9.256;2023-02-01T08:07:55;10.57;;;6.13;;
434;SDS011;204;48.942;9.256;2023-02-01T08:10:20;9.00;;;5.53;;
434;SDS011;204;48.942;9.256;2023-02-01T08:12:46;13.37;;;6.87;;
434;SDS011;204;48.942;9.256;2023-02-01T08:15:14;13.32;;;6.05;;
434;SDS011;204;48.942;9.256;2023-02-01T08:17:46;7.63;;;5.60;;
434;SDS011;204;48.942;9.256;2023-02-01T08:20:15;8.48;;;5.30;;
434;SDS011;204;48.942;9.256;2023-02-01T08:22:42;12.38;;;6.97;;
434;SDS011;204;48.942;9.256;2023-02-01T08:25:08;11.00;;;5.23;;
434;SDS011;204;48.942;9.256;2023-02-01T08:27:33;8.20;;;5.60;;
434;SDS011;204;48.942;9.256;2023-02-01T08:29:59;13.80;;;5.47;;
434;SDS011;204;48.942;9.256;2023-02-01T08:32:25;7.97;;;5.30;;
434;SDS011;204;48.942;9.256;2023-02-01T08:34:51;8.98;;;4.60;;
434;SDS011;204;48.942;9.256;2023-02-01T08:37:17;8.27;;;5.10;;
434;SDS011;204;48.942;9.256;2023-02-01T08:39:43;12.27;;;6.00;;
434;SDS011;204;48.942;9.256;2023-02-01T08:42:09;7.18;;;4.40;;
434;SDS011;204;48.942;9.256;2023-02-01T08:44:54;9.98;;;4.78;;
434;SDS011;204;48.942;9.256;2023-02-01T08:47:20;6.40;;;4.43;;
434;SDS011;204;48.942;9.256;2023-02-01T08:49:46;6.37;;;4.53;;
434;SDS011;204;48.942;9.256;2023-02-01T08:52:11;6.53;;;4.10;;
434;SDS011;204;48.942;9.256;2023-02-01T08:54:37;6.10;;;4.20;;
434;SDS011;204;48.942;9.256;2023-02-01T08:57:05;8.15;;;5.10;;
434;SDS011;204;48.942;9.256;2023-02-01T08:59:30;11.60;;;4.67;;
434;SDS011;204;48.942;9.256;2023-02-01T09:01:56;8.00;;;4.73;;
434;SDS011;204;48.942;9.256;2023-02-01T09:04:21;6.63;;;3.83;;
434;SDS011;204;48.942;9.256;2023-02-01T09:06:47;11.77;;;4.23;;
434;SDS011;204;48.942;9.256;2023-02-01T09:09:12;9.60;;;4.97;;
434;SDS011;204;48.942;9.256;2023-02-01T09:11:38;11.27;;;4.40;;
434;SDS011;204;48.942;9.256;2023-02-01T09:14:03;9.70;;;3.97;;
434;SDS011;204;48.942;9.256;2023-02-01T09:16:29;6.83;;;3.93;;
434;SDS011;204;48.942;9.256;2023-02-01T09:18:55;11.33;;;4.77;;
434;SDS011;204;48.942;9.256;2023-02-01T09:21:20;7.70;;;3.73;;
434;SDS011;204;48.942;9.256;2023-02-01T09:23:46;9.80;;;4.10;;
434;SDS011;204;48.942;9.256;2023-02-01T09:26:13;6.05;;;3.15;;
434;SDS011;204;48.942;9.256;2023-02-01T09:28:39;6.78;;;3.63;;
434;SDS011;204;48.942;9.256;2023-02-01T09:31:05;8.57;;;3.77;;
434;SDS011;204;48.942;9.256;2023-02-01T09:33:30;8.93;;;3.67;;
434;SDS011;204;48.942;9.256;2023-02-01T09:35:57;8.27;;;3.90;;
434;SDS011;204;48.942;9.256;2023-02-01T09:38:27;8.32;;;3.95;;
434;SDS011;204;48.942;9.256;2023-02-01T09:40:54;7.93;;;3.30;;
434;SDS011;204;48.942;9.256;2023-02-01T09:48:44;10.32;;;4.03;;
434;SDS011;204;48.942;9.256;2023-02-01T09:51:15;7.97;;;3.88;;
434;SDS011;204;48.942;9.256;2023-02-01T09:53:48;6.30;;;3.33;;
434;SDS011;204;48.942;9.256;2023-02-01T09:56:33;8.52;;;4.03;;
434;SDS011;204;48.942;9.256;2023-02-01T09:59:08;8.13;;;3.35;;
434;SDS011;204;48.942;9.256;2023-02-01T10:01:37;10.30;;;4.40;;
434;SDS011;204;48.942;9.256;2023-02-01T10:04:13;10.50;;;3.60;;
434;SDS011;204;48.942;9.256;2023-02-01T10:17:45;8.85;;;3.63;;
434;SDS011;204;48.942;9.256;2023-02-01T10:20:23;8.00;;;3.35;;
434;SDS011;204;48.942;9.256;2023-02-01T10:25:55;9.57;;;3.03;;
434;SDS011;204;48.942;9.256;2023-02-01T10:28:21;11.60;;;3.70;;
434;SDS011;204;48.942;9.256;2023-02-01T10:30:49;11.77;;;4.88;;
434;SDS011;204;48.942;9.256;2023-02-01T10:33:25;11.57;;;3.30;;
434;SDS011;204;48.942;9.256;2023-02-01T10:36:35;11.18;;;3.42;;
434;SDS011;204;48.942;9.256;2023-02-01T10:38:50;6.70;;;3.25;;
434;SDS011;204;48.942;9.256;2023-02-01T10:41:18;8.27;;;3.73;;
434;SDS011;204;48.942;9.256;2023-02-01T10:43:48;14.05;;;4.00;;
434;SDS011;204;48.942;9.256;2023-02-01T10:46:18;11.07;;;3.80;;
434;SDS011;204;48.942;9.256;2023-02-01T10:48:43;13.50;;;3.33;;
434;SDS011;204;48.942;9.256;2023-02-01T10:53:42;10.52;;;3.95;;
434;SDS011;204;48.942;9.256;2023-02-01T10:56:18;13.30;;;3.85;;
434;SDS011;204;48.942;9.256;2023-02-01T10:58:51;10.82;;;3.42;;
434;SDS011;204;48.942;9.256;2023-02-01T11:01:28;6.05;;;3.35;;
434;SDS011;204;48.942;9.256;2023-02-01T11:03:59;14.88;;;3.83;;
434;SDS011;204;48.942;9.256;2023-02-01T11:06:34;11.75;;;3.30;;
434;SDS011;204;48.942;9.256;2023-02-01T11:14:18;8.65;;;3.58;;
434;SDS011;204;48.942;9.256;2023-02-01T11:16:47;10.68;;;4.00;;
434;SDS011;204;48.942;9.256;2023-02-01T11:19:15;9.73;;;3.35;;
434;SDS011;204;48.942;9.256;2023-02-01T11:21:42;13.77;;;3.92;;
434;SDS011;204;48.942;9.256;2023-02-01T11:24:18;13.38;;;3.47;;
434;SDS011;204;48.942;9.256;2023-02-01T11:26:56;11.52;;;4.18;;
434;SDS011;204;48.942;9.256;2023-02-01T11:29:24;9.23;;;3.42;;
434;SDS011;204;48.942;9.256;2023-02-01T11:32:01;11.02;;;4.20;;
434;SDS011;204;48.942;9.256;2023-02-01T11:34:41;12.40;;;3.85;;
434;SDS011;204;48.942;9.256;2023-02-01T11:37:54;10.18;;;3.75;;
434;SDS011;204;48.942;9.256;2023-02-01T11:42:58;12.07;;;5.57;;
434;SDS011;204;48.942;9.256;2023-02-01T11:46:03;6.60;;;2.80;;
434;SDS011;204;48.942;9.256;2023-02-01T11:48:50;10.10;;;3.10;;
434;SDS011;204;48.942;9.256;2023-02-01T11:55:29;7.57;;;2.92;;
434;SDS011;204;48.942;9.256;2023-02-01T11:59:59;8.77;;;3.58;;
434;SDS011;204;48.942;9.256;2023-02-01T12:16:27;9.27;;;3.13;;
434;SDS011;204;48.942;9.256;2023-02-01T12:24:11;11.52;;;2.90;;
434;SDS011;204;48.942;9.256;2023-02-01T12:29:33;6.50;;;2.85;;
434;SDS011;204;48.942;9.256;2023-02-01T12:45:56;6.65;;;2.63;;
434;SDS011;204;48.942;9.256;2023-02-01T12:51:21;6.25;;;2.75;;
434;SDS011;204;48.942;9.256;2023-02-01T12:56:34;10.18;;;3.40;;
434;SDS011;204;48.942;9.256;2023-02-01T12:59:27;6.15;;;3.45;;
434;SDS011;204;48.942;9.256;2023-02-01T13:02:04;9.48;;;3.20;;
434;SDS011;204;48.942;9.256;2023-02-01T13:04:46;12.80;;;3.60;;
434;SDS011;204;48.942;9.256;2023-02-01T13:12:56;6.43;;;2.15;;
434;SDS011;204;48.942;9.256;2023-02-01T13:15:37;6.88;;;2.60;;
434;SDS011;204;48.942;9.256;2023-02-01T13:18:13;12.85;;;4.43;;
434;SDS011;204;48.942;9.256;2023-02-01T13:20:51;9.50;;;3.20;;
434;SDS011;204;48.942;9.256;2023-02-01T13:23:45;8.82;;;3.03;;
434;SDS011;204;48.942;9.256;2023-02-01T13:26:11;7.38;;;2.85;;
434;SDS011;204;48.942;9.256;2023-02-01T13:42:11;5.38;;;3.03;;
434;SDS011;204;48.942;9.256;2023-02-01T13:45:01;11.23;;;4.90;;
434;SDS011;204;48.942;9.256;2023-02-01T13:47:40;12.23;;;3.42;;
434;SDS011;204;48.942;9.256;2023-02-01T13:50:29;14.05;;;3.25;;
434;SDS011;204;48.942;9.256;2023-02-01T13:55:46;12.00;;;4.35;;
434;SDS011;204;48.942;9.256;2023-02-01T13:58:30;14.25;;;6.30;;
434;SDS011;204;48.942;9.256;2023-02-01T14:06:15;5.88;;;2.45;;
434;SDS011;204;48.942;9.256;2023-02-01T14:11:44;7.22;;;3.45;;
434;SDS011;204;48.942;9.256;2023-02-01T14:16:44;6.40;;;4.10;;
434;SDS011;204;48.942;9.256;2023-02-01T14:19:52;9.60;;;4.70;;
434;SDS011;204;48.942;9.256;2023-02-01T14:23:12;13.20;;;11.60;;
434;SDS011;204;48.942;9.256;2023-02-01T14:25:46;29.05;;;27.27;;
434;SDS011;204;48.942;9.256;2023-02-01T14:28:25;13.65;;;10.57;;
434;SDS011;204;48.942;9.256;2023-02-01T14:30:54;15.38;;;8.85;;
434;SDS011;204;48.942;9.256;2023-02-01T14:33:23;15.35;;;5.82;;
434;SDS011;204;48.942;9.256;2023-02-01T14:36:25;13.13;;;5.15;;
434;SDS011;204;48.942;9.256;2023-02-01T14:38:47;7.30;;;3.60;;
434;SDS011;204;48.942;9.256;2023-02-01T14:41:24;15.80;;;4.10;;
434;SDS011;204;48.942;9.256;2023-02-01T14:49:32;11.00;;;4.45;;
434;SDS011;204;48.942;9.256;2023-02-01T14:51:59;9.32;;;3.60;;
434;SDS011;204;48.942;9.256;2023-02-01T14:54:27;8.35;;;3.47;;
434;SDS011;204;48.942;9.256;2023-02-01T14:56:53;6.72;;;3.58;;
434;SDS011;204;48.942;9.256;2023-02-01T14:59:20;10.82;;;3.50;;
434;SDS011;204;48.942;9.256;2023-02-01T15:01:58;5.47;;;3.22;;
434;SDS011;204;48.942;9.256;2023-02-01T15:04:26;8.57;;;3.30;;
434;SDS011;204;48.942;9.256;2023-02-01T15:06:58;11.57;;;3.95;;
434;SDS011;204;48.942;9.256;2023-02-01T15:14:34;8.32;;;3.60;;
434;SDS011;204;48.942;9.256;2023-02-01T15:17:01;9.40;;;4.43;;
434;SDS011;204;48.942;9.256;2023-02-01T15:19:29;6.40;;;3.17;;
434;SDS011;204;48.942;9.256;2023-02-01T15:21:56;8.35;;;3.90;;
434;SDS011;204;48.942;9.256;2023-02-01T15:26:51;8.75;;;3.75;;
434;SDS011;204;48.942;9.256;2023-02-01T15:29:18;12.88;;;4.45;;
434;SDS011;204;48.942;9.256;2023-02-01T15:31:46;13.40;;;5.15;;
434;SDS011;204;48.942;9.256;2023-02-01T15:34:14;11.90;;;4.30;;
434;SDS011;204;48.942;9.256;2023-02-01T15:36:40;11.80;;;4.93;;
434;SDS011;204;48.942;9.256;2023-02-01T15:39:13;13.25;;;5.65;;
434;SDS011;204;48.942;9.256;2023-02-01T15:42:09;10.52;;;5.70;;
434;SDS011;204;48.942;9.256;2023-02-01T15:44:40;12.13;;;3.90;;
434;SDS011;204;48.942;9.256;2023-02-01T15:47:24;12.20;;;5.20;;
434;SDS011;204;48.942;9.256;2023-02-01T15:49:56;8.50;;;3.75;;
434;SDS011;204;48.942;9.256;2023-02-01T15:52:30;11.10;;;3.78;;
434;SDS011;204;48.942;9.256;2023-02-01T15:55:00;7.15;;;2.78;;
434;SDS011;204;48.942;9.256;2023-02-01T15:57:31;37.13;;;19.90;;
434;SDS011;204;48.942;9.256;2023-02-01T16:00:04;8.95;;;4.55;;
434;SDS011;204;48.942;9.256;2023-02-01T16:02:50;4.80;;;2.75;;
434;SDS011;204;48.942;9.256;2023-02-01T16:08:06;9.85;;;2.50;;
434;SDS011;204;48.942;9.256;2023-02-01T16:10:41;10.93;;;2.85;;
434;SDS011;204;48.942;9.256;2023-02-01T16:13:11;12.43;;;4.55;;
434;SDS011;204;48.942;9.256;2023-02-01T16:15:37;15.43;;;4.90;;
434;SDS011;204;48.942;9.256;2023-02-01T16:18:03;13.70;;;7.82;;
434;SDS011;204;48.942;9.256;2023-02-01T16:20:29;17.17;;;5.80;;
434;SDS011;204;48.942;9.256;2023-02-01T16:22:55;9.93;;;3.80;;
434;SDS011;204;48.942;9.256;2023-02-01T16:25:21;10.68;;;4.13;;
434;SDS011;204;48.942;9.256;2023-02-01T16:27:47;10.33;;;4.80;;
434;SDS011;204;48.942;9.256;2023-02-01T16:30:13;11.23;;;3.77;;
434;SDS011;204;48.942;9.256;2023-02-01T16:32:38;9.43;;;3.57;;
434;SDS011;204;48.942;9.256;2023-02-01T16:35:15;8.23;;;3.50;;
434;SDS011;204;48.942;9.256;2023-02-01T16:37:47;7.25;;;2.70;;
434;SDS011;204;48.942;9.256;2023-02-01T16:40:16;10.83;;;3.27;;
434;SDS011;204;48.942;9.256;2023-02-01T16:42:43;6.70;;;3.17;;
434;SDS011;204;48.942;9.256;2023-02-01T16:45:11;9.40;;;3.40;;
434;SDS011;204;48.942;9.256;2023-02-01T16:47:37;10.00;;;4.10;;
434;SDS011;204;48.942;9.256;2023-02-01T16:50:14;6.53;;;3.22;;
434;SDS011;204;48.942;9.256;2023-02-01T16:52:41;11.00;;;3.08;;
434;SDS011;204;48.942;9.256;2023-02-01T16:55:11;9.95;;;5.35;;
434;SDS011;204;48.942;9.256;2023-02-01T16:57:40;11.18;;;3.58;;
434;SDS011;204;48.942;9.256;2023-02-01T17:00:07;6.95;;;3.15;;
434;SDS011;204;48.942;9.256;2023-02-01T17:02:34;10.18;;;3.40;;
434;SDS011;204;48.942;9.256;2023-02-01T17:04:59;10.90;;;3.40;;
434;SDS011;204;48.942;9.256;2023-02-01T17:07:25;9.50;;;4.40;;
434;SDS011;204;48.942;9.256;2023-02-01T17:09:51;10.70;;;3.47;;
434;SDS011;204;48.942;9.256;2023-02-01T17:12:27;12.17;;;4.40;;
434;SDS011;204;48.942;9.256;2023-02-01T17:14:55;12.00;;;4.30;;
434;SDS011;204;48.942;9.256;2023-02-01T17:17:21;11.43;;;3.63;;
434;SDS011;204;48.942;9.256;2023-02-01T17:19:48;9.10;;;3.97;;
434;SDS011;204;48.942;9.256;2023-02-01T17:22:17;10.52;;;3.88;;
434;SDS011;204;48.942;9.256;2023-02-01T17:24:43;8.93;;;3.55;;
434;SDS011;204;48.942;9.256;2023-02-01T17:27:09;14.50;;;3.57;;
434;SDS011;204;48.942;9.256;2023-02-01T17:29:35;5.87;;;3.40;;
434;SDS011;204;48.942;9.256;2023-02-01T17:32:00;10.87;;;4.30;;
434;SDS011;204;48.942;9.256;2023-02-01T17:34:27;8.13;;;4.00;;
434;SDS011;204;48.942;9.256;2023-02-01T17:36:53;15.05;;;4.85;;
434;SDS011;204;48.942;9.256;2023-02-01T17:39:18;23.07;;;11.70;;
434;SDS011;204;48.942;9.256;2023-02-01T17:42:03;8.10;;;3.63;;
434;SDS011;204;48.942;9.256;2023-02-01T17:44:30;7.95;;;3.40;;
434;SDS011;204;48.942;9.256;2023-02-01T17:46:56;5.30;;;3.63;;
434;SDS011;204;48.942;9.256;2023-02-01T17:49:23;13.70;;;3.83;;
434;SDS011;204;48.942;9.256;2023-02-01T17:51:49;15.37;;;4.57;;
434;SDS011;204;48.942;9.256;2023-02-01T17:54:15;9.03;;;4.37;;
434;SDS011;204;48.942;9.256;2023-02-01T17:56:44;8.82;;;3.58;;
434;SDS011;204;48.942;9.256;2023-02-01T17:59:10;7.70;;;3.55;;
434;SDS011;204;48.942;9.256;2023-02-01T18:01:35;7.97;;;3.43;;
434;SDS011;204;48.942;9.256;2023-02-01T18:04:01;7.97;;;3.00;;
434;SDS011;204;48.942;9.256;2023-02-01T18:06:27;9.23;;;3.57;;
434;SDS011;204;48.942;9.256;2023-02-01T18:08:58;8.68;;;3.40;;
434;SDS011;204;48.942;9.256;2023-02-01T18:11:24;10.40;;;4.50;;
434;SDS011;204;48.942;9.256;2023-02-01T18:13:50;15.67;;;4.30;;
434;SDS011;204;48.942;9.256;2023-02-01T18:16:21;13.35;;;4.63;;
434;SDS011;204;48.942;9.256;2023-02-01T18:18:48;10.07;;;3.55;;
434;SDS011;204;48.942;9.256;2023-02-01T18:21:15;8.82;;;3.33;;
434;SDS011;204;48.942;9.256;2023-02-01T18:23:42;6.32;;;3.55;;
434;SDS011;204;48.942;9.256;2023-02-01T18:26:11;11.68;;;3.35;;
434;SDS011;204;48.942;9.256;2023-02-01T18:28:38;12.48;;;4.90;;
434;SDS011;204;48.942;9.256;2023-02-01T18:31:05;8.18;;;3.42;;
434;SDS011;204;48.942;9.256;2023-02-01T18:33:31;9.77;;;3.53;;
434;SDS011;204;48.942;9.256;2023-02-01T18:35:57;12.33;;;3.53;;
434;SDS011;204;48.942;9.256;2023-02-01T18:38:22;11.33;;;4.27;;